WetterOnline ( http://www.wetteronline.de )

Wetter aktuell Ellscheid

Aktuelles Wetter: Nürburg-Barweiler (488m)

6-stündlich | Neueste Meldungen
Ortszeit Temperatur Wetter
Mo, 18.06. 14:00 18.5° C bedeckt
Mo, 18.06. 8:00 13.0° C bedeckt
Mo, 18.06. 2:00 12.3° C bedeckt
So, 17.06. 20:00 14.2° C bedeckt
So, 17.06. 14:00 17.6° C bewölkt
So, 17.06. 8:00 13.2° C bewölkt
So, 17.06. 2:00 12.8° C bewölkt
Sa, 16.06. 20:00 20.0° C wolkig
Ortszeit Temperatur Wetter
Mo, 18.06. 19:10 18.9° C bedeckt
Mo, 18.06. 19:00 18.6° C bedeckt
Mo, 18.06. 18:50 18.6° C bedeckt
Mo, 18.06. 18:40 18.7° C bedeckt
Mo, 18.06. 18:30 18.9° C bedeckt
Mo, 18.06. 18:20 18.9° C bedeckt
Mo, 18.06. 18:00 18.3° C bedeckt
Mo, 18.06. 17:30 18.2° C bedeckt
Mo, 18.06. 17:00 17.8° C bedeckt
Mo, 18.06. 16:30 17.8° C bedeckt
Mo, 18.06. 16:00 17.8° C bedeckt
Ortszeit Relative Feuchte Sichtweite
Mo, 18.06. 14:00 63% 30 km
Mo, 18.06. 8:00 80% 29 km
Mo, 18.06. 2:00 79% 30 km
So, 17.06. 20:00 67% -
So, 17.06. 14:00 63% 21 km
So, 17.06. 8:00 85% 16 km
So, 17.06. 2:00 91% -
Sa, 16.06. 20:00 61% 35 km
Ortszeit Relative Feuchte Sichtweite
Mo, 18.06. 19:10 70% -
Mo, 18.06. 19:00 70% 30 km
Mo, 18.06. 18:50 70% -
Mo, 18.06. 18:40 70% -
Mo, 18.06. 18:30 69% 35 km
Mo, 18.06. 18:20 69% -
Mo, 18.06. 18:00 71% 27 km
Mo, 18.06. 17:30 71% 30 km
Mo, 18.06. 17:00 73% 30 km
Mo, 18.06. 16:30 71% 30 km
Mo, 18.06. 16:00 71% 29 km
Ortszeit Niederschlagsmenge Niederschlagsart
Mo, 18.06. 14:00 0.0 l/m2 in 6 Std. -
Mo, 18.06. 8:00 0.0 l/m2 in 12 Std. -
Mo, 18.06. 2:00 0.0 l/m2 in 6 Std. -
So, 17.06. 20:00 0.1 l/m2 in 12 Std. -
So, 17.06. 14:00 0.0 l/m2 in 6 Std. -
So, 17.06. 8:00 8 l/m2 in 12 Std. -
So, 17.06. 2:00 8 l/m2 in 6 Std. -
Sa, 16.06. 20:00 0.0 l/m2 in 12 Std. -
Ortszeit Niederschlagsmenge Niederschlagsart
Mo, 18.06. 19:10 keine Meldung -
Mo, 18.06. 19:00 0.0 l/m2 in 1 Std. -
Mo, 18.06. 18:50 keine Meldung -
Mo, 18.06. 18:40 keine Meldung -
Mo, 18.06. 18:30 0.0 l/m2 in 1 Std. -
Mo, 18.06. 18:20 keine Meldung -
Mo, 18.06. 18:00 0.0 l/m2 in 1 Std. -
Mo, 18.06. 17:30 0.0 l/m2 in 1 Std. -
Mo, 18.06. 17:00 0.1 l/m2 in 1 Std. Sprühregen
Mo, 18.06. 16:30 0.0 l/m2 in 1 Std. -
Mo, 18.06. 16:00 0.0 l/m2 in 1 Std. -
Ortszeit Stärke Spitze Richtung
km/h Bft. km/h Grad Sektor
Mo, 18.06. 14:00 14 3 32 230° SW
Mo, 18.06. 8:00 7 2 14 230° SW
Mo, 18.06. 2:00 7 2 19 210° SW
So, 17.06. 20:00 14 3 32 270° W
So, 17.06. 14:00 13 3 33 240° SW
So, 17.06. 8:00 6 1 9 210° SW
So, 17.06. 2:00 6 1 26 260° W
Sa, 16.06. 20:00 11 2 24 220° SW
Ortszeit Stärke Spitze Richtung
km/h Bft. km/h Grad Sektor
Mo, 18.06. 19:10 13 3 - 220° SW
Mo, 18.06. 19:00 13 3 24 240° SW
Mo, 18.06. 18:50 13 3 - 240° SW
Mo, 18.06. 18:40 11 2 - 220° SW
Mo, 18.06. 18:30 14 3 25 230° SW
Mo, 18.06. 18:20 14 3 - 230° SW
Mo, 18.06. 18:00 13 3 24 230° SW
Mo, 18.06. 17:30 13 3 22 230° SW
Mo, 18.06. 17:00 11 2 22 220° SW
Mo, 18.06. 16:30 11 2 18 210° SW
Mo, 18.06. 16:00 11 2 25 220° SW
Ortszeit Untergrenze Bedeckung Gattung
total tief tief mittel hoch
Mo, 18.06. 14:00 810 m 8/8 8/8 - - -
Mo, 18.06. 8:00 900 m 8/8 8/8 - - -
Mo, 18.06. 2:00 1500 m 8/8 8/8 - - -
So, 17.06. 20:00 2400 m 8/8 8/8 - - -
So, 17.06. 14:00 870 m 8/8 7/8 - - -
So, 17.06. 8:00 1500 m 7/8 7/8 - - -
So, 17.06. 2:00 3000 m 7/8 7/8 - - -
Sa, 16.06. 20:00 1320 m 6/8 6/8 - - -
Ortszeit Bedeckungsgrad in Achtel und Wolkenuntergrenze
Mo, 18.06. 19:10 8(1500m)
Mo, 18.06. 19:00 3(690m) 8(1500m)
Mo, 18.06. 18:50 3(690m) 8(1500m)
Mo, 18.06. 18:40 6(660m) 8(1500m)
Mo, 18.06. 18:30 4(660m) 4(1200m) 8(1500m)
Mo, 18.06. 18:20 4(660m) 4(1200m) 8(1500m)
Mo, 18.06. 18:00 3(630m) 7(1440m) 8(1500m)
Mo, 18.06. 17:30 1(660m) 6(1200m) 8(1500m)
Mo, 18.06. 17:00 5(840m) 7(1020m) 8(1260m)
Mo, 18.06. 16:30 5(1050m) 8(1350m)
Mo, 18.06. 16:00 5(840m) 8(1050m) 8(1380m)
Ortszeit Luftdruck NN (hPa) Tendenz (hPa in 3 Std.)
Mo, 18.06. 14:00 1021 + 0,1
Mo, 18.06. 8:00 1022 + 0,5
Mo, 18.06. 2:00 1022 + 0,6
So, 17.06. 20:00 1020 + 0,9
So, 17.06. 14:00 1017 0,0
So, 17.06. 8:00 1018 + 0,4
So, 17.06. 2:00 1017 + 0,2
Sa, 16.06. 20:00 1014 - 0,2
Ortszeit Luftdruck NN (hPa) Tendenz (hPa in 3 Std.)
Mo, 18.06. 19:10 1021 keine Meldung
Mo, 18.06. 19:00 1021 - 0,7
Mo, 18.06. 18:50 1021 keine Meldung
Mo, 18.06. 18:40 1021 keine Meldung
Mo, 18.06. 18:30 1021 - 0,3
Mo, 18.06. 18:20 1021 keine Meldung
Mo, 18.06. 18:00 1021 0,0
Mo, 18.06. 17:30 1021 + 0,2
Mo, 18.06. 17:00 1022 + 0,4
Mo, 18.06. 16:30 1022 + 0,4
Mo, 18.06. 16:00 1022 + 0,5
Ortszeit Schneehöhe (cm)
Mo, 18.06. 14:00 -
Mo, 18.06. 8:00 -
Mo, 18.06. 2:00 -
So, 17.06. 20:00 -
So, 17.06. 14:00 -
So, 17.06. 8:00 -
So, 17.06. 2:00 -
Sa, 16.06. 20:00 -
Ortszeit Schneehöhe (cm)
Mo, 18.06. 19:10 -
Mo, 18.06. 19:00 -
Mo, 18.06. 18:50 -
Mo, 18.06. 18:40 -
Mo, 18.06. 18:30 -
Mo, 18.06. 18:20 -
Mo, 18.06. 18:00 -
Mo, 18.06. 17:30 -
Mo, 18.06. 17:00 -
Mo, 18.06. 16:30 -
Mo, 18.06. 16:00 -
Link zu dieser Seite / Seite empfehlen

Das Wetter in ...